Laurent Verva

Laurent Verva

Statistiques 2026

  • Courses courues : 135
  • Nb de victoires : 2
  • Nb de places : 12
  • Écart gagnant : -
  • Réussite à la gagne : 1%
  • Réussite à la place : 9%
Musique : 1a 5a 6a 5a 8a 4a 6a Da Da 0a 4a 0a 8a 9a Da Da 1a Da
DateRangCatégorieAlloc.Dist.HippodromeChevalRed. KmSpé.
15/06/13 6 Trot 15 000€ 2 400m Amiens A Black du Houlet Attelé
15/06/13 8 Trot 15 000€ 2 900m Amiens Volney d'Alci 1'18"3 Attelé
16/06/13 7 Trot 15 000€ 2 400m Arras Vegas Ceijy Attelé
16/06/13 1 Trot 15 000€ 2 400m Arras Vaziristan TNC Attelé
17/06/13 5 Trot 15 000€ 1 900m Le Croise Laroche Aria de Corday 1'16"8 Attelé
23/06/13 5 Trot 15 000€ 2 625m Saint Omer Volcan des Racques Attelé
24/06/13 6 Trot 15 000€ 2 700m Le Croise Laroche A Black du Houlet 1'17"7 Attelé
24/06/13 4 Trot 15 000€ 1 900m Le Croise Laroche Victoire du Jaguy 1'15"7 Attelé
24/06/13 2 Trot 15 000€ 1 900m Le Croise Laroche Vegas Ceijy 1'16"5 Attelé
30/06/13 6 Trot 15 000€ 2 650m Laon Vegas Ceijy 1'20"3 Attelé
30/06/13 6 Trot 15 000€ 2 650m Laon Victoire du Jaguy 1'21"2 Attelé
20/07/13 D Trot 15 000€ 2 400m Amiens Val du Geer Attelé
20/07/13 0 Trot 15 000€ 2 400m Amiens Avara de la Besvre Attelé
20/07/13 6 Trot 15 000€ 2 400m Amiens Victoire du Jaguy 1'16"9 Attelé
28/07/13 2 Trot 15 000€ 2 000m La Capelle Amazone Blue 1'18"5 Attelé lire

Longtemps en retrait, a su très bien terminer, sans menacer la lauréate.

01/08/13 6 Trot 15 000€ 2 000m La Capelle Artiste de Mai 1'19"5 Attelé lire

Vite aux premiers rangs, a été dominé pour finir.

18/08/13 9 Trot 15 000€ 2 650m Saint Omer Uppolis 1'21"2 Attelé
23/08/13 5 Trot 15 000€ 2 900m Amiens Victoire du Jaguy 1'17"8 Attelé
23/08/13 3 Trot 15 000€ 2 400m Amiens Aria de Corday 1'17"3 Attelé
23/08/13 7 Trot 15 000€ 2 400m Amiens Amazone Blue 1'18"6 Attelé
23/08/13 1 Trot 15 000€ 2 900m Amiens Volcan de Jaudrais 1'18"3 Attelé
30/08/13 4 Trot 15 000€ 2 400m Amiens Amazone Blue 1'17"5 Attelé
30/08/13 0 Trot 15 000€ 2 400m Amiens Veva de Guegue Attelé
02/09/13 0 Trot 15 000€ 2 700m Le Croise Laroche Aria de Corday Attelé
02/09/13 3 Trot 15 000€ 2 825m Le Croise Laroche Ungaro d'Arc 1'18"6 Attelé
02/09/13 1 Trot 15 000€ 2 700m Le Croise Laroche Vic d'Arc 1'16"7 Attelé
09/09/13 7 Trot 15 000€ 2 700m Le Croise Laroche Vrai Conseil 1'17"0 Attelé
16/06/18 8 Trot 15 000€ 2 400m Amiens Filou du Lion 1'19"1 Attelé
02/07/18 5 Trot 15 000€ 2 850m Le Croise Laroche Etoile Dubonheur 1'17"1 Attelé
28/07/18 5 Trot 15 000€ 2 900m Amiens Es Tu la Des Fanes 1'17"6 Attelé
05/08/18 D Trot 15 000€ 2 600m Berck Sur Mer Come Back Attelé
05/08/18 8 Trot 15 000€ 2 625m Berck Sur Mer Cubana Attelé
25/08/18 0 Trot 15 000€ 2 400m Amiens Elixir Neslois Attelé
02/09/18 8 Trot 15 000€ 2 625m Saint Omer Dryade des Salines 1'20"2 Attelé
03/09/18 1 Trot 15 000€ 2 400m Amiens Ercule de Navary 1'16"7 Attelé
03/09/18 D Trot 15 000€ 2 400m Amiens Fire Bird Attelé
10/09/18 9 Trot 15 000€ 2 700m Le Croise Laroche Felinara 1'19"6 Attelé
14/09/18 0 Trot 15 000€ 2 700m Le Croise Laroche Etoile Dubonheur Attelé
29/09/18 1 Trot 15 000€ 2 700m Le Croise Laroche Fire Bird 1'17"4 Attelé
30/09/18 2 Trot 15 000€ 2 000m La Capelle Geisha d'Arbaz 1'17"8 Attelé
30/09/18 0 Trot 15 000€ 2 750m La Capelle Elixir Neslois Attelé
05/10/18 8 Trot 15 000€ 2 850m Mauquenchy Damysos d'Awagne 1'17"0 Attelé
06/10/18 D Trot 15 000€ 2 400m Amiens Ellamika Attelé
15/10/18 3 Trot 15 000€ 2 700m Le Croise Laroche Epona des Neuzy 1'16"5 Attelé
15/10/18 3 Trot 15 000€ 2 825m Le Croise Laroche Falco d'Alci 1'18"6 Attelé
27/10/18 D Trot 15 000€ 2 400m Amiens Enora Paulo Attelé
28/10/18 0 Trot 15 000€ 2 700m La Capelle Falco d'Alci Attelé
11/11/18 6 Trot 15 000€ 2 000m La Capelle Ganador Del Amor 1'20"3 Attelé
11/11/18 6 Trot 15 000€ 2 700m La Capelle Fiston d'hertals 1'19"1 Attelé
11/11/18 2 Trot 15 000€ 2 700m La Capelle Ethano de Bouteau Attelé